createdAt,value
2022-10-26T00:02:00.062Z,15.50
2022-10-26T00:05:06.969Z,15.48
2022-10-26T00:08:13.390Z,15.33
2022-10-26T00:11:18.035Z,15.36
2022-10-26T00:14:10.444Z,15.34
2022-10-26T00:17:11.281Z,15.54
2022-10-26T00:20:16.708Z,15.24
2022-10-26T00:23:23.721Z,15.08
2022-10-26T00:26:29.662Z,15.48
2022-10-26T00:29:36.081Z,15.21
2022-10-26T00:32:43.082Z,14.79
2022-10-26T00:35:50.725Z,14.80
2022-10-26T00:38:56.060Z,14.60
2022-10-26T00:42:01.843Z,14.49
2022-10-26T00:45:17.400Z,14.64
2022-10-26T00:48:28.845Z,14.85
2022-10-26T00:51:57.002Z,14.84
2022-10-26T00:55:03.567Z,14.59
2022-10-26T00:58:09.440Z,14.70
2022-10-26T01:01:16.434Z,14.75
2022-10-26T01:04:22.556Z,15.03
2022-10-26T01:07:29.213Z,14.86
2022-10-26T01:10:36.450Z,14.80
2022-10-26T01:13:44.821Z,14.69
2022-10-26T01:20:39.923Z,14.71
2022-10-26T01:23:59.519Z,14.55
2022-10-26T01:27:22.132Z,14.61
2022-10-26T01:30:33.576Z,14.88
2022-10-26T01:33:58.537Z,14.72
2022-10-26T01:37:09.511Z,14.77
2022-10-26T01:40:24.093Z,14.71
2022-10-26T01:43:30.234Z,14.99
2022-10-26T01:46:37.530Z,14.95
2022-10-26T01:49:47.710Z,14.83
2022-10-26T01:52:54.317Z,14.99
2022-10-26T01:56:03.472Z,14.92
2022-10-26T01:59:42.621Z,14.98
2022-10-26T02:03:14.128Z,14.95
2022-10-26T02:06:43.194Z,15.07
2022-10-26T02:09:50.091Z,14.92
2022-10-26T02:13:26.113Z,14.91
2022-10-26T02:16:50.299Z,14.89
2022-10-26T02:20:09.012Z,14.90
2022-10-26T02:23:18.786Z,15.32
2022-10-26T02:26:26.159Z,15.06
2022-10-26T02:29:33.878Z,15.01
2022-10-26T02:32:42.002Z,15.10
2022-10-26T02:35:49.246Z,15.02
2022-10-26T02:38:55.222Z,14.90
2022-10-26T02:42:02.659Z,14.79
2022-10-26T02:45:14.813Z,14.75
2022-10-26T02:48:21.037Z,14.88
2022-10-26T02:51:42.904Z,14.87
2022-10-26T02:55:09.063Z,14.94
2022-10-26T02:58:17.135Z,14.86
2022-10-26T03:01:23.891Z,14.86
2022-10-26T03:04:23.268Z,14.88
2022-10-26T03:07:37.218Z,14.93
2022-10-26T03:10:42.150Z,14.98
2022-10-26T03:13:48.517Z,15.02
2022-10-26T03:16:53.538Z,15.16
2022-10-26T03:19:59.428Z,14.99
2022-10-26T03:23:04.901Z,15.16
2022-10-26T03:26:13.191Z,15.02
2022-10-26T03:29:19.396Z,14.96
2022-10-26T03:32:25.449Z,14.88
2022-10-26T03:35:30.397Z,14.78
2022-10-26T03:38:35.629Z,14.95
2022-10-26T03:41:41.070Z,14.74
2022-10-26T03:44:47.406Z,15.06
2022-10-26T03:48:01.332Z,15.13
2022-10-26T03:51:07.060Z,15.30
2022-10-26T03:54:14.019Z,15.15
2022-10-26T03:57:20.355Z,15.11
2022-10-26T04:00:27.158Z,15.02
2022-10-26T04:03:34.537Z,15.11
2022-10-26T04:06:41.524Z,15.08
2022-10-26T04:09:47.092Z,15.00
2022-10-26T04:12:53.277Z,14.89
2022-10-26T04:15:59.829Z,14.96
2022-10-26T04:19:05.575Z,15.10
2022-10-26T04:22:11.222Z,14.87
2022-10-26T04:25:18.758Z,14.71
2022-10-26T04:28:24.664Z,14.79
2022-10-26T04:31:31.359Z,14.86
2022-10-26T04:34:38.873Z,14.97
2022-10-26T04:37:43.877Z,15.04
2022-10-26T04:40:49.575Z,15.22
2022-10-26T04:43:55.057Z,15.13
2022-10-26T04:47:01.077Z,15.01
2022-10-26T04:50:08.258Z,15.06
2022-10-26T04:53:14.960Z,15.18
2022-10-26T04:56:19.795Z,15.06
2022-10-26T04:59:26.960Z,14.92
2022-10-26T05:02:33.533Z,15.03
2022-10-26T05:05:39.069Z,15.21
2022-10-26T05:08:45.410Z,15.18
2022-10-26T05:11:51.248Z,15.24
2022-10-26T05:14:57.493Z,15.05
2022-10-26T05:18:12.567Z,15.16
2022-10-26T05:21:18.739Z,15.13
2022-10-26T05:24:25.160Z,15.07
2022-10-26T05:27:33.580Z,15.11
2022-10-26T05:30:41.045Z,15.02
2022-10-26T05:33:46.401Z,15.26
2022-10-26T05:36:52.163Z,15.47
2022-10-26T05:39:58.163Z,15.21
2022-10-26T05:43:03.849Z,15.32
2022-10-26T05:46:09.658Z,15.47
2022-10-26T05:49:15.196Z,15.47
2022-10-26T05:52:22.852Z,15.52
2022-10-26T05:55:31.585Z,15.68
2022-10-26T05:58:38.553Z,15.73
2022-10-26T06:02:30.016Z,15.67
2022-10-26T06:05:40.226Z,15.78
2022-10-26T06:08:47.229Z,15.92
2022-10-26T06:11:54.325Z,15.87
2022-10-26T06:15:00.867Z,15.83
2022-10-26T06:18:23.825Z,15.64
2022-10-26T06:21:35.340Z,15.73
2022-10-26T06:25:23.392Z,15.76
2022-10-26T06:29:05.085Z,15.89
2022-10-26T06:32:11.223Z,15.97
2022-10-26T06:35:55.113Z,15.78
2022-10-26T06:39:02.802Z,15.78
2022-10-26T06:42:08.698Z,15.90
2022-10-26T06:45:16.219Z,15.98
2022-10-26T06:48:31.865Z,16.07
2022-10-26T06:51:42.054Z,16.02
2022-10-26T06:55:04.021Z,15.86
2022-10-26T06:58:10.491Z,15.93
2022-10-26T07:01:17.585Z,15.97
2022-10-26T07:04:24.353Z,16.03
2022-10-26T07:07:36.046Z,16.12
2022-10-26T07:10:42.284Z,16.00
2022-10-26T07:13:47.621Z,16.32
2022-10-26T07:16:53.832Z,16.44
2022-10-26T07:20:01.020Z,16.46
2022-10-26T07:23:08.665Z,16.41
2022-10-26T07:26:16.241Z,16.18
2022-10-26T07:29:26.843Z,16.33
2022-10-26T07:32:32.904Z,16.42
2022-10-26T07:35:39.243Z,16.34
2022-10-26T07:38:44.163Z,16.37
2022-10-26T07:41:50.418Z,16.57
2022-10-26T07:44:55.229Z,16.60
2022-10-26T07:48:00.627Z,16.43
2022-10-26T07:51:06.045Z,16.38
2022-10-26T07:54:13.921Z,16.56
2022-10-26T07:57:19.623Z,16.50
2022-10-26T08:00:27.662Z,16.41
2022-10-26T08:03:33.435Z,16.50
2022-10-26T08:06:42.139Z,16.34
2022-10-26T08:09:47.449Z,16.48
2022-10-26T08:12:53.414Z,16.50
2022-10-26T08:15:58.569Z,16.61
2022-10-26T08:19:06.156Z,16.91
2022-10-26T08:22:15.934Z,17.03
2022-10-26T08:25:21.550Z,16.73
2022-10-26T08:28:27.550Z,16.63
2022-10-26T08:31:34.223Z,16.77
2022-10-26T08:34:40.848Z,16.72
2022-10-26T08:37:47.673Z,16.64
2022-10-26T08:40:57.154Z,16.80
2022-10-26T08:44:09.475Z,16.50
2022-10-26T08:47:37.378Z,16.68
2022-10-26T08:50:48.071Z,16.67
2022-10-26T08:54:15.341Z,16.75
2022-10-26T08:57:22.653Z,16.62
2022-10-26T09:00:35.119Z,16.57
2022-10-26T09:03:41.512Z,16.66
2022-10-26T09:07:10.785Z,16.61
2022-10-26T09:13:48.991Z,16.64
2022-10-26T09:17:23.603Z,17.07
2022-10-26T09:20:45.613Z,16.98
2022-10-26T09:24:28.808Z,16.99
2022-10-26T09:27:45.517Z,16.94
2022-10-26T09:30:52.482Z,16.85
2022-10-26T09:33:58.868Z,16.81
2022-10-26T09:37:08.223Z,16.76
2022-10-26T09:40:29.566Z,16.71
2022-10-26T09:43:39.802Z,16.66
2022-10-26T09:46:58.520Z,16.62
2022-10-26T09:50:10.677Z,16.84
2022-10-26T09:53:16.753Z,16.91
2022-10-26T09:56:29.161Z,16.76
2022-10-26T09:59:37.500Z,16.68
2022-10-26T10:02:49.240Z,16.82
2022-10-26T10:05:55.790Z,16.78
2022-10-26T10:09:27.547Z,16.68
2022-10-26T10:12:36.170Z,16.54
2022-10-26T10:15:42.367Z,16.63
2022-10-26T10:18:47.865Z,16.63
2022-10-26T10:22:02.675Z,16.65
2022-10-26T10:25:14.262Z,16.40
2022-10-26T10:28:37.956Z,16.45
2022-10-26T10:31:46.579Z,16.45
2022-10-26T10:34:52.549Z,16.42
2022-10-26T10:37:57.539Z,16.40
2022-10-26T10:41:11.716Z,16.31
2022-10-26T10:44:29.434Z,16.39
2022-10-26T10:47:46.857Z,16.55
2022-10-26T10:50:51.988Z,16.71
2022-10-26T10:54:05.331Z,16.67
2022-10-26T10:57:25.730Z,16.69
2022-10-26T11:00:34.421Z,16.79
2022-10-26T11:04:04.714Z,16.96
2022-10-26T11:07:11.816Z,16.99
2022-10-26T11:10:18.852Z,16.76
2022-10-26T11:13:31.907Z,16.74
2022-10-26T11:16:54.422Z,16.94
2022-10-26T11:20:14.794Z,16.81
2022-10-26T11:23:29.279Z,16.99
2022-10-26T11:26:50.327Z,17.06
2022-10-26T11:30:20.398Z,17.07
2022-10-26T11:33:41.925Z,16.98
2022-10-26T11:36:49.064Z,16.89
2022-10-26T11:40:06.819Z,16.94
2022-10-26T11:43:33.388Z,17.05
2022-10-26T11:46:48.563Z,17.11
2022-10-26T11:50:07.458Z,17.05
2022-10-26T11:53:16.131Z,17.10
2022-10-26T11:56:34.665Z,17.13
2022-10-26T11:59:45.736Z,17.05
2022-10-26T12:02:57.211Z,17.20
2022-10-26T12:06:06.647Z,17.12
2022-10-26T12:09:22.366Z,17.24
2022-10-26T12:12:38.821Z,17.15
2022-10-26T12:16:06.116Z,17.00
2022-10-26T12:19:17.919Z,17.20
2022-10-26T12:22:27.262Z,17.13
2022-10-26T12:25:35.574Z,17.18
2022-10-26T12:28:54.735Z,17.15
2022-10-26T12:32:01.084Z,16.93
2022-10-26T12:35:10.631Z,16.84
2022-10-26T12:38:19.152Z,16.74
2022-10-26T12:41:37.304Z,16.72
2022-10-26T12:44:57.619Z,16.70
2022-10-26T12:48:15.745Z,16.65
2022-10-26T12:51:39.923Z,16.43
2022-10-26T12:55:00.151Z,16.30
2022-10-26T12:58:23.376Z,16.46
2022-10-26T13:01:42.489Z,16.24
2022-10-26T13:05:07.944Z,16.24
2022-10-26T13:08:20.663Z,16.04
2022-10-26T13:11:37.222Z,16.05
2022-10-26T13:14:52.969Z,16.08
2022-10-26T13:18:05.887Z,15.81
2022-10-26T13:21:22.776Z,15.90
2022-10-26T13:24:28.749Z,15.91
2022-10-26T13:27:31.392Z,15.82
2022-10-26T13:30:50.118Z,15.75
2022-10-26T13:33:58.337Z,15.63
2022-10-26T13:37:39.080Z,15.66
2022-10-26T13:40:44.754Z,15.58
2022-10-26T13:43:52.029Z,15.64
2022-10-26T13:46:57.169Z,15.51
2022-10-26T13:50:02.645Z,15.54
2022-10-26T13:53:14.809Z,15.58
2022-10-26T13:56:40.839Z,15.76
2022-10-26T13:59:45.866Z,15.63
2022-10-26T14:02:54.731Z,15.68
2022-10-26T14:06:00.486Z,15.64
2022-10-26T14:09:08.724Z,15.74
2022-10-26T14:12:17.514Z,15.79
2022-10-26T14:15:23.424Z,15.93
2022-10-26T14:18:37.258Z,15.77
2022-10-26T14:21:42.906Z,15.69
2022-10-26T14:24:52.432Z,15.68
2022-10-26T14:27:57.725Z,15.80
2022-10-26T14:31:03.621Z,15.87
2022-10-26T14:34:11.619Z,15.87
2022-10-26T14:37:17.930Z,15.65
2022-10-26T14:40:31.885Z,15.66
2022-10-26T14:43:38.554Z,15.71
2022-10-26T14:46:48.594Z,15.58
2022-10-26T14:53:14.722Z,15.58
2022-10-26T14:56:23.437Z,15.70
2022-10-26T14:59:46.788Z,15.55
2022-10-26T15:06:00.509Z,15.35
2022-10-26T15:09:13.417Z,15.33
2022-10-26T15:12:20.687Z,15.01
2022-10-26T15:15:38.907Z,15.05
2022-10-26T15:18:46.999Z,15.08
2022-10-26T15:21:57.579Z,14.99
2022-10-26T15:25:05.211Z,14.87
2022-10-26T15:28:12.081Z,14.82
2022-10-26T15:31:29.967Z,14.99
2022-10-26T15:34:38.144Z,15.11
2022-10-26T15:37:44.167Z,14.98
2022-10-26T15:40:49.422Z,14.95
2022-10-26T15:43:56.136Z,14.83
2022-10-26T15:47:05.116Z,14.68
2022-10-26T15:50:09.016Z,14.67
2022-10-26T15:53:19.139Z,14.79
2022-10-26T15:56:29.140Z,14.64
2022-10-26T15:59:34.558Z,14.63
2022-10-26T16:02:39.109Z,14.56
2022-10-26T16:05:43.875Z,14.64
2022-10-26T16:08:50.484Z,14.44
2022-10-26T16:11:58.298Z,14.19
2022-10-26T16:15:07.368Z,14.29
2022-10-26T16:18:12.887Z,14.32
2022-10-26T16:21:18.694Z,14.25
2022-10-26T16:24:25.143Z,14.34
2022-10-26T16:27:33.028Z,14.17
2022-10-26T16:30:38.757Z,14.17
2022-10-26T16:33:50.529Z,14.27
2022-10-26T16:36:57.365Z,14.26
2022-10-26T16:40:03.983Z,14.50
2022-10-26T16:43:09.431Z,14.48
2022-10-26T16:46:15.308Z,14.57
2022-10-26T16:49:21.750Z,14.51
2022-10-26T16:52:27.917Z,14.80
2022-10-26T16:55:33.701Z,14.46
2022-10-26T16:58:38.782Z,14.21
2022-10-26T17:01:45.715Z,14.39
2022-10-26T17:04:51.973Z,14.13
2022-10-26T17:07:57.741Z,14.46
2022-10-26T17:11:03.568Z,14.29
2022-10-26T17:14:09.225Z,14.28
2022-10-26T17:17:15.599Z,14.63
2022-10-26T17:20:23.519Z,14.87
2022-10-26T17:23:28.602Z,14.92
2022-10-26T17:26:35.478Z,14.74
2022-10-26T17:29:42.507Z,14.82
2022-10-26T17:32:49.486Z,14.52
2022-10-26T17:35:55.540Z,14.40
2022-10-26T17:39:03.905Z,14.46
2022-10-26T17:42:02.236Z,14.50
2022-10-26T17:45:09.295Z,14.49
2022-10-26T17:48:15.728Z,14.51
2022-10-26T17:51:27.155Z,14.42
2022-10-26T17:54:32.974Z,14.67
2022-10-26T17:57:38.436Z,14.76
2022-10-26T18:00:37.441Z,14.69
2022-10-26T18:03:29.899Z,14.64
2022-10-26T18:06:37.019Z,14.44
2022-10-26T18:09:43.856Z,14.64
2022-10-26T18:12:49.646Z,14.51
2022-10-26T18:15:54.637Z,14.92
2022-10-26T18:19:02.293Z,14.59
2022-10-26T18:22:08.475Z,14.55
2022-10-26T18:25:14.444Z,14.53
2022-10-26T18:28:20.025Z,14.44
2022-10-26T18:31:28.342Z,14.67
2022-10-26T18:34:34.989Z,14.55
2022-10-26T18:37:40.161Z,14.51
2022-10-26T18:40:50.088Z,14.41
2022-10-26T18:43:58.383Z,14.49
2022-10-26T18:47:05.878Z,14.40
2022-10-26T18:50:12.685Z,14.56
2022-10-26T18:53:23.624Z,14.64
2022-10-26T18:56:33.293Z,14.57
2022-10-26T18:59:39.771Z,14.58
2022-10-26T19:02:48.668Z,14.86
2022-10-26T19:05:53.593Z,14.90
2022-10-26T19:09:00.764Z,14.79
2022-10-26T19:12:06.632Z,14.86
2022-10-26T19:15:12.214Z,14.84
2022-10-26T19:18:17.874Z,15.06
2022-10-26T19:21:28.037Z,14.77
2022-10-26T19:24:35.760Z,14.83
2022-10-26T19:27:42.775Z,14.75
2022-10-26T19:30:48.632Z,14.68
2022-10-26T19:33:55.252Z,14.83
2022-10-26T19:37:02.516Z,15.02
2022-10-26T19:40:08.303Z,15.02
2022-10-26T19:43:14.622Z,14.87
2022-10-26T19:46:29.469Z,14.54
2022-10-26T19:49:34.847Z,14.82
2022-10-26T19:52:40.401Z,14.80
2022-10-26T19:55:46.577Z,14.83
2022-10-26T19:58:52.127Z,14.85
2022-10-26T20:01:58.173Z,14.69
2022-10-26T20:05:03.335Z,14.95
2022-10-26T20:08:09.435Z,14.92
2022-10-26T20:11:15.934Z,14.94
2022-10-26T20:14:22.391Z,15.04
2022-10-26T20:17:29.175Z,14.84
2022-10-26T20:20:38.052Z,14.90
2022-10-26T20:23:43.899Z,14.74
2022-10-26T20:26:50.428Z,14.69
2022-10-26T20:29:56.469Z,14.62
2022-10-26T20:33:03.146Z,14.76
2022-10-26T20:36:14.592Z,14.77
2022-10-26T20:39:22.274Z,14.78
2022-10-26T20:42:37.254Z,14.85
2022-10-26T20:45:44.765Z,14.73
2022-10-26T20:48:51.452Z,14.79
2022-10-26T20:52:19.908Z,15.00
2022-10-26T20:55:26.519Z,14.90
2022-10-26T20:58:55.596Z,14.84
2022-10-26T21:02:01.298Z,14.77
2022-10-26T21:05:07.432Z,14.74
2022-10-26T21:08:15.441Z,14.73
2022-10-26T21:11:21.462Z,14.64
2022-10-26T21:14:28.209Z,14.57
2022-10-26T21:17:35.328Z,14.55
2022-10-26T21:20:41.340Z,14.55
2022-10-26T21:23:51.987Z,14.71
2022-10-26T21:26:50.721Z,14.58
2022-10-26T21:29:50.846Z,14.56
2022-10-26T21:36:09.583Z,14.79
2022-10-26T21:39:08.866Z,14.51
2022-10-26T21:42:03.332Z,14.51
2022-10-26T21:45:08.784Z,14.40
2022-10-26T21:48:15.230Z,14.51
2022-10-26T21:51:24.549Z,14.41
2022-10-26T21:54:29.666Z,14.48
2022-10-26T21:57:35.406Z,14.56
2022-10-26T22:00:42.578Z,14.49
2022-10-26T22:03:47.908Z,14.10
2022-10-26T22:06:54.578Z,14.05
2022-10-26T22:10:09.643Z,13.98
2022-10-26T22:13:02.910Z,14.13
2022-10-26T22:16:24.404Z,14.03
2022-10-26T22:19:31.207Z,13.98
2022-10-26T22:22:36.767Z,13.89
2022-10-26T22:25:43.386Z,13.87
2022-10-26T22:28:51.193Z,13.90
2022-10-26T22:31:57.604Z,13.93
2022-10-26T22:35:11.352Z,13.88
2022-10-26T22:38:12.212Z,13.96
2022-10-26T22:41:12.014Z,14.23
2022-10-26T22:44:17.932Z,14.45
2022-10-26T22:47:24.145Z,14.33
2022-10-26T22:50:29.661Z,14.29
2022-10-26T22:53:36.222Z,14.64
2022-10-26T22:56:41.796Z,14.31
2022-10-26T22:59:41.785Z,14.37
2022-10-26T23:02:48.171Z,14.64
2022-10-26T23:06:05.170Z,14.53
2022-10-26T23:09:10.615Z,14.61
2022-10-26T23:12:16.436Z,14.65
2022-10-26T23:15:23.319Z,14.68
2022-10-26T23:18:29.268Z,14.75
2022-10-26T23:21:35.566Z,14.72
2022-10-26T23:24:42.501Z,14.82
2022-10-26T23:27:48.163Z,14.81
2022-10-26T23:30:54.593Z,14.93
2022-10-26T23:34:01.681Z,14.87
2022-10-26T23:37:08.467Z,14.97
2022-10-26T23:40:14.843Z,14.99
2022-10-26T23:43:21.113Z,14.99
2022-10-26T23:49:33.997Z,15.24
2022-10-26T23:52:40.045Z,15.13
2022-10-26T23:55:39.767Z,15.06
2022-10-26T23:58:46.165Z,15.07
